Time;durP1;ratioP1;P1;durP2;ratioP2;P2;SDS_P1;SDS_P2;PMS_P1;PMS_P2;Temp;Humidity;BMP_temperature;BMP_pressure;BME280_temperature;BME280_humidity;BME280_pressure;Samples;Min_cycle;Max_cycle;Signal;HPM_P1;HPM_P2
2022/09/03 00:02:00;;;;;;;0.00;0.00;;;13.40;99.90;;;;;;5068720;28;20045;-73
2022/09/03 00:04:58;;;;;;;0.57;0.52;;;13.50;99.90;;;;;;5068784;28;20543;-73
2022/09/03 00:07:43;;;;;;;0.00;0.00;;;13.60;99.90;;;;;;5073146;28;20084;-73
2022/09/03 00:10:15;;;;;;;0.00;0.00;;;13.70;99.90;;;;;;5073136;28;20091;-73
2022/09/03 00:12:44;;;;;;;0.20;0.20;;;13.60;99.90;;;;;;5073630;28;20044;-74
2022/09/03 00:15:22;;;;;;;0.10;0.10;;;13.50;99.90;;;;;;5073549;28;20096;-73
2022/09/03 00:18:15;;;;;;;0.00;0.00;;;13.50;99.90;;;;;;5073491;28;20044;-73
2022/09/03 00:20:49;;;;;;;0.00;0.00;;;13.40;99.90;;;;;;5074182;28;20048;-73
2022/09/03 00:23:20;;;;;;;0.00;0.00;;;13.30;99.90;;;;;;5074666;28;20104;-73
2022/09/03 00:26:16;;;;;;;0.00;0.00;;;13.20;99.90;;;;;;5074971;28;20078;-73
2022/09/03 00:28:47;;;;;;;0.03;0.03;;;13.00;99.90;;;;;;5074860;28;20090;-74
2022/09/03 00:31:36;;;;;;;0.00;0.00;;;12.90;99.90;;;;;;5057222;28;20144;-73
2022/09/03 00:34:08;;;;;;;0.08;0.05;;;12.90;99.90;;;;;;5057845;28;20056;-73
2022/09/03 00:36:42;;;;;;;1.17;0.75;;;12.80;99.90;;;;;;5075151;28;20059;-74
2022/09/03 00:39:19;;;;;;;0.10;0.10;;;12.80;99.90;;;;;;5073715;28;20045;-74
2022/09/03 00:42:06;;;;;;;0.03;0.03;;;12.70;99.90;;;;;;5074538;28;20045;-74
2022/09/03 00:44:53;;;;;;;0.00;0.00;;;12.70;99.90;;;;;;5057479;28;20053;-74
2022/09/03 00:47:46;;;;;;;3.83;0.98;;;12.50;99.90;;;;;;5075864;28;20037;-74
2022/09/03 00:50:38;;;;;;;0.20;0.20;;;12.60;99.90;;;;;;5076360;28;20049;-73
2022/09/03 00:53:19;;;;;;;0.00;0.00;;;12.50;99.90;;;;;;5075223;28;20056;-74
2022/09/03 00:55:57;;;;;;;0.08;0.03;;;12.70;99.90;;;;;;5076784;28;20056;-73
2022/09/03 00:59:07;;;;;;;2.85;1.00;;;12.60;99.90;;;;;;5076281;28;20041;-73
2022/09/03 01:01:39;;;;;;;0.00;0.00;;;12.50;99.90;;;;;;5059526;28;20043;-73
2022/09/03 01:04:20;;;;;;;0.08;0.08;;;12.60;99.90;;;;;;5074803;28;20053;-74
2022/09/03 01:07:22;;;;;;;0.00;0.00;;;12.50;99.90;;;;;;5074958;28;20585;-74
2022/09/03 01:10:08;;;;;;;0.25;0.25;;;12.40;99.90;;;;;;5074963;28;20049;-74
2022/09/03 01:13:07;;;;;;;0.00;0.00;;;12.30;99.90;;;;;;5076339;28;20067;-74
2022/09/03 01:15:54;;;;;;;0.00;0.00;;;12.30;99.90;;;;;;5075161;28;20043;-74
2022/09/03 01:18:38;;;;;;;0.00;0.00;;;12.20;99.90;;;;;;5075812;28;20452;-74
2022/09/03 01:21:28;;;;;;;0.15;0.08;;;12.10;99.90;;;;;;5075137;28;20052;-74
2022/09/03 01:24:20;;;;;;;0.00;0.00;;;12.10;99.90;;;;;;5075181;28;20083;-74
2022/09/03 01:26:54;;;;;;;0.10;0.10;;;12.20;99.90;;;;;;5076572;28;20053;-74
2022/09/03 01:29:25;;;;;;;0.00;0.00;;;12.30;99.90;;;;;;5076010;28;20044;-74
2022/09/03 01:32:18;;;;;;;0.32;0.32;;;12.10;99.90;;;;;;5074990;28;20044;-74
2022/09/03 01:34:56;;;;;;;0.47;0.47;;;12.00;99.90;;;;;;5075501;28;20037;-74
2022/09/03 01:37:46;;;;;;;0.00;0.00;;;12.00;99.90;;;;;;5075640;28;20053;-74
2022/09/03 01:40:28;;;;;;;0.43;0.43;;;12.00;99.90;;;;;;5075989;28;20045;-74
2022/09/03 01:43:20;;;;;;;0.05;0.05;;;12.00;99.90;;;;;;5075725;28;20049;-75
2022/09/03 01:46:13;;;;;;;0.00;0.00;;;11.80;99.90;;;;;;5058262;28;20066;-74
2022/09/03 01:49:10;;;;;;;0.25;0.22;;;11.90;99.90;;;;;;5076775;28;20045;-74
2022/09/03 01:51:36;;;;;;;0.25;0.10;;;11.70;99.90;;;;;;5075685;28;20056;-74
2022/09/03 01:54:26;;;;;;;0.00;0.00;;;11.70;99.90;;;;;;5057854;28;20059;-74
2022/09/03 01:57:19;;;;;;;0.65;0.43;;;11.70;99.90;;;;;;5074961;28;20071;-74
2022/09/03 01:59:59;;;;;;;0.30;0.25;;;11.60;99.90;;;;;;5075208;28;20096;-74
2022/09/03 02:02:27;;;;;;;0.00;0.00;;;11.60;99.90;;;;;;5074401;28;20041;-74
2022/09/03 02:05:03;;;;;;;0.00;0.00;;;11.60;99.90;;;;;;5073132;28;20045;-74
2022/09/03 02:07:47;;;;;;;0.20;0.10;;;11.40;99.90;;;;;;5074693;28;20064;-74
2022/09/03 02:10:21;;;;;;;0.20;0.13;;;11.50;99.90;;;;;;5074391;28;20053;-74
2022/09/03 02:12:52;;;;;;;0.00;0.00;;;11.50;99.90;;;;;;5075378;28;20501;-74
2022/09/03 02:15:21;;;;;;;0.00;0.00;;;11.50;99.90;;;;;;5073723;28;20053;-74
2022/09/03 02:17:49;;;;;;;0.00;0.00;;;11.50;99.90;;;;;;5074586;28;20057;-74
2022/09/03 02:20:21;;;;;;;0.00;0.00;;;11.60;99.90;;;;;;5056694;28;20083;-74
2022/09/03 02:22:48;;;;;;;0.17;0.13;;;11.40;99.90;;;;;;5074587;28;20165;-74
2022/09/03 02:25:15;;;;;;;0.13;0.13;;;11.40;99.90;;;;;;5073958;28;20059;-74
2022/09/03 02:27:42;;;;;;;0.03;0.03;;;11.40;99.90;;;;;;5057444;28;20041;-74
2022/09/03 02:30:09;;;;;;;0.00;0.00;;;11.50;99.90;;;;;;5072512;28;20049;-73
2022/09/03 02:32:35;;;;;;;0.00;0.00;;;11.50;99.90;;;;;;5056048;28;20041;-74
2022/09/03 02:35:00;;;;;;;0.05;0.05;;;11.60;99.90;;;;;;5072592;28;20380;-73
2022/09/03 02:37:26;;;;;;;0.00;0.00;;;11.70;99.90;;;;;;5071482;28;20087;-74
2022/09/03 02:39:52;;;;;;;0.00;0.00;;;11.80;99.90;;;;;;5070596;28;20058;-74
2022/09/03 02:42:19;;;;;;;0.10;0.10;;;11.90;99.90;;;;;;5070525;28;20029;-74
2022/09/03 02:44:49;;;;;;;0.00;0.00;;;12.10;99.90;;;;;;5069651;28;20053;-74
2022/09/03 02:47:15;;;;;;;0.65;0.28;;;12.20;99.90;;;;;;5070930;28;20053;-73
2022/09/03 02:49:41;;;;;;;0.00;0.00;;;12.30;99.90;;;;;;5070844;28;20100;-74
2022/09/03 02:52:08;;;;;;;0.00;0.00;;;12.40;99.90;;;;;;5069768;28;20052;-74
2022/09/03 02:54:38;;;;;;;0.00;0.00;;;12.60;99.90;;;;;;5069812;28;20045;-74
2022/09/03 02:57:06;;;;;;;0.00;0.00;;;12.60;99.90;;;;;;5070930;28;20124;-73
2022/09/03 02:59:32;;;;;;;1.27;0.57;;;12.60;99.90;;;;;;5070206;28;20476;-74
2022/09/03 03:01:58;;;;;;;0.32;0.32;;;12.60;99.90;;;;;;5069829;28;20049;-74
2022/09/03 03:04:24;;;;;;;0.20;0.20;;;12.70;99.90;;;;;;5066969;28;20483;-74
2022/09/03 03:06:49;;;;;;;0.10;0.10;;;12.70;99.90;;;;;;5066069;28;20049;-74
2022/09/03 03:09:16;;;;;;;0.00;0.00;;;12.80;99.90;;;;;;5068507;28;20084;-74
2022/09/03 03:11:41;;;;;;;0.00;0.00;;;12.80;99.90;;;;;;5070211;28;20053;-74
2022/09/03 03:14:07;;;;;;;0.00;0.00;;;12.90;99.90;;;;;;5069983;28;20048;-75
2022/09/03 03:16:33;;;;;;;0.52;0.28;;;12.90;99.90;;;;;;5068770;28;20071;-74
2022/09/03 03:18:59;;;;;;;0.00;0.00;;;12.80;99.90;;;;;;5068833;28;20057;-74
2022/09/03 03:21:25;;;;;;;0.80;0.75;;;12.80;99.90;;;;;;5069433;28;20108;-74
2022/09/03 03:23:50;;;;;;;0.00;0.00;;;12.80;99.90;;;;;;5070490;28;20040;-74
2022/09/03 03:26:19;;;;;;;0.00;0.00;;;12.80;99.90;;;;;;5069661;28;20048;-74
2022/09/03 03:28:47;;;;;;;0.00;0.00;;;12.80;99.90;;;;;;5070370;28;20041;-74
2022/09/03 03:31:15;;;;;;;0.80;0.43;;;12.70;99.90;;;;;;5071147;28;20071;-74
2022/09/03 03:33:41;;;;;;;0.00;0.00;;;12.70;99.90;;;;;;5070348;28;20045;-74
2022/09/03 03:36:10;;;;;;;0.30;0.10;;;12.60;99.90;;;;;;5070626;28;20053;-75
2022/09/03 03:38:36;;;;;;;1.67;0.52;;;12.60;99.90;;;;;;5069238;28;20053;-74
2022/09/03 03:41:14;;;;;;;0.22;0.13;;;12.60;99.90;;;;;;5070808;28;20048;-74
2022/09/03 03:43:40;;;;;;;0.00;0.00;;;12.60;99.90;;;;;;5072658;28;20041;-74
2022/09/03 03:46:06;;;;;;;0.00;0.00;;;13.00;99.90;;;;;;5071847;28;20575;-74
2022/09/03 03:48:32;;;;;;;0.00;0.00;;;12.80;99.90;;;;;;5070973;28;20045;-74
2022/09/03 03:51:07;;;;;;;0.52;0.28;;;12.60;99.90;;;;;;5073556;28;20111;-74
2022/09/03 03:53:34;;;;;;;0.20;0.13;;;12.60;99.90;;;;;;5072367;28;20068;-74
2022/09/03 03:56:02;;;;;;;0.25;0.10;;;12.60;99.90;;;;;;5073201;28;20029;-74
2022/09/03 03:58:30;;;;;;;0.57;0.47;;;12.50;99.90;;;;;;5073481;28;20044;-74
2022/09/03 04:01:03;;;;;;;0.00;0.00;;;12.50;99.90;;;;;;5072012;28;20535;-74
2022/09/03 04:03:28;;;;;;;1.17;0.98;;;12.70;99.90;;;;;;5051882;28;20053;-74
2022/09/03 04:05:59;;;;;;;0.45;0.38;;;12.50;99.90;;;;;;5054523;28;20074;-74
2022/09/03 04:08:25;;;;;;;0.00;0.00;;;12.50;99.90;;;;;;5071095;28;20071;-74
2022/09/03 04:10:51;;;;;;;1.65;0.28;;;12.50;99.90;;;;;;5067990;28;20053;-73
2022/09/03 04:13:17;;;;;;;0.20;0.20;;;12.50;99.90;;;;;;5066743;28;20080;-74
2022/09/03 04:15:43;;;;;;;0.00;0.00;;;12.50;99.90;;;;;;5065566;28;20041;-74
2022/09/03 04:18:09;;;;;;;0.00;0.00;;;12.70;99.90;;;;;;5070289;28;20041;-75
2022/09/03 04:20:38;;;;;;;0.10;0.10;;;12.70;99.90;;;;;;5075614;28;20052;-74
2022/09/03 04:23:04;;;;;;;0.00;0.00;;;12.60;99.90;;;;;;5072984;28;20708;-74
2022/09/03 04:25:30;;;;;;;0.00;0.00;;;12.50;99.90;;;;;;5073484;28;20056;-74
2022/09/03 04:27:56;;;;;;;0.20;0.20;;;12.50;99.90;;;;;;5073958;28;20045;-74
2022/09/03 04:30:22;;;;;;;0.00;0.00;;;12.40;99.90;;;;;;5073273;28;20060;-74
2022/09/03 04:32:53;;;;;;;0.00;0.00;;;12.40;99.90;;;;;;5072723;28;20037;-74
2022/09/03 04:35:22;;;;;;;0.10;0.10;;;12.40;99.90;;;;;;5072350;28;20072;-74
2022/09/03 04:37:48;;;;;;;7.13;0.85;;;12.30;99.90;;;;;;5071013;28;20040;-73
2022/09/03 04:40:13;;;;;;;0.00;0.00;;;12.30;99.90;;;;;;5071748;28;20041;-74
2022/09/03 04:42:39;;;;;;;0.00;0.00;;;12.30;99.90;;;;;;5072784;28;20071;-74
2022/09/03 04:45:05;;;;;;;1.35;0.47;;;12.20;99.90;;;;;;5072205;28;20049;-74
2022/09/03 04:47:31;;;;;;;0.00;0.00;;;12.20;99.90;;;;;;5073933;28;20041;-73
2022/09/03 04:49:57;;;;;;;0.10;0.10;;;12.10;99.90;;;;;;5071995;28;20055;-74
2022/09/03 04:52:23;;;;;;;0.00;0.00;;;12.20;99.90;;;;;;5072037;28;20053;-73
2022/09/03 04:54:49;;;;;;;0.52;0.40;;;12.20;99.90;;;;;;5067845;28;20102;-74
2022/09/03 04:57:15;;;;;;;0.20;0.20;;;12.30;99.90;;;;;;5070378;28;20047;-74
2022/09/03 04:59:41;;;;;;;0.00;0.00;;;12.30;99.90;;;;;;5069996;28;20541;-73
2022/09/03 05:02:08;;;;;;;0.15;0.15;;;12.40;99.90;;;;;;5067670;28;20052;-74
2022/09/03 05:04:34;;;;;;;1.00;0.55;;;12.30;99.90;;;;;;5069416;28;20053;-75
2022/09/03 05:07:00;;;;;;;0.05;0.05;;;12.30;99.90;;;;;;5069732;28;20060;-74
2022/09/03 05:09:25;;;;;;;0.65;0.30;;;12.30;99.90;;;;;;5068693;28;20052;-74
2022/09/03 05:11:51;;;;;;;0.10;0.10;;;12.30;99.90;;;;;;5067949;28;20514;-74
2022/09/03 05:14:16;;;;;;;0.28;0.10;;;12.30;99.90;;;;;;5071040;28;20049;-74
2022/09/03 05:16:42;;;;;;;0.10;0.10;;;12.40;99.90;;;;;;5068986;28;20120;-74
2022/09/03 05:19:08;;;;;;;0.00;0.00;;;12.40;99.90;;;;;;5069071;28;20045;-74
2022/09/03 05:21:34;;;;;;;0.00;0.00;;;12.40;99.90;;;;;;5067861;28;20052;-74
2022/09/03 05:24:01;;;;;;;1.08;0.82;;;12.40;99.90;;;;;;5069460;28;20413;-74
2022/09/03 05:26:29;;;;;;;2.53;0.85;;;12.40;99.90;;;;;;5069290;28;20490;-75
2022/09/03 05:28:58;;;;;;;0.20;0.20;;;12.40;99.90;;;;;;5067934;28;20037;-74
2022/09/03 05:31:26;;;;;;;0.00;0.00;;;12.60;99.90;;;;;;5069264;28;20067;-75
2022/09/03 05:33:58;;;;;;;0.45;0.22;;;12.60;99.90;;;;;;5069900;28;20049;-74
2022/09/03 05:36:27;;;;;;;0.52;0.45;;;12.60;99.90;;;;;;5070506;28;20075;-75
2022/09/03 05:38:56;;;;;;;0.32;0.22;;;12.60;99.90;;;;;;5068663;28;20049;-76
2022/09/03 05:41:22;;;;;;;1.90;0.65;;;12.60;99.90;;;;;;5071485;28;20037;-74
2022/09/03 05:43:55;;;;;;;0.25;0.20;;;12.60;99.90;;;;;;5069836;28;20056;-74
2022/09/03 05:46:32;;;;;;;0.20;0.17;;;12.60;99.90;;;;;;5070251;28;20047;-75
2022/09/03 05:49:02;;;;;;;0.00;0.00;;;12.70;99.90;;;;;;5070394;28;20105;-74
2022/09/03 05:51:29;;;;;;;0.10;0.10;;;12.80;99.90;;;;;;5068755;28;20116;-75
2022/09/03 05:53:54;;;;;;;0.10;0.10;;;12.80;99.90;;;;;;5072459;28;20048;-74
2022/09/03 05:56:23;;;;;;;3.63;0.32;;;12.80;99.90;;;;;;5070354;28;20053;-74
2022/09/03 05:58:51;;;;;;;0.45;0.32;;;12.80;99.90;;;;;;5065821;28;20076;-74
2022/09/03 06:01:22;;;;;;;0.20;0.20;;;12.90;99.90;;;;;;5064876;28;20093;-75
2022/09/03 06:03:54;;;;;;;0.30;0.30;;;13.00;99.90;;;;;;5070018;28;20048;-75
2022/09/03 06:06:24;;;;;;;0.32;0.20;;;13.10;99.90;;;;;;5071289;28;20044;-75
2022/09/03 06:08:51;;;;;;;0.10;0.10;;;13.10;99.90;;;;;;5071513;28;20100;-74
2022/09/03 06:11:17;;;;;;;1.35;0.40;;;13.10;99.90;;;;;;5068332;28;20048;-75
2022/09/03 06:13:42;;;;;;;0.03;0.03;;;13.10;99.90;;;;;;5049977;28;20053;-74
2022/09/03 06:16:08;;;;;;;0.30;0.28;;;13.50;99.90;;;;;;5067342;28;20047;-75
2022/09/03 06:18:34;;;;;;;0.28;0.28;;;14.10;99.90;;;;;;5064112;28;20087;-74
2022/09/03 06:21:05;;;;;;;0.10;0.10;;;14.40;99.90;;;;;;5067623;28;20029;-74
2022/09/03 06:23:32;;;;;;;0.30;0.30;;;14.60;99.90;;;;;;5069741;28;20055;-74
2022/09/03 06:26:09;;;;;;;0.20;0.20;;;15.00;99.90;;;;;;5072018;28;20025;-74
2022/09/03 06:28:36;;;;;;;0.10;0.10;;;15.20;99.90;;;;;;5067428;28;20033;-74
2022/09/03 06:31:04;;;;;;;0.30;0.22;;;15.50;99.90;;;;;;5067051;28;20047;-75
2022/09/03 06:33:32;;;;;;;0.00;0.00;;;15.70;99.90;;;;;;5061107;28;20120;-75
2022/09/03 06:35:59;;;;;;;0.00;0.00;;;15.60;99.90;;;;;;5066383;28;20049;-75
2022/09/03 06:38:30;;;;;;;0.65;0.25;;;16.10;99.90;;;;;;5064450;28;20051;-74
2022/09/03 06:41:00;;;;;;;0.00;0.00;;;16.10;99.90;;;;;;5061517;28;20056;-75
2022/09/03 06:43:28;;;;;;;0.00;0.00;;;16.30;98.00;;;;;;5061526;28;20045;-74
2022/09/03 06:45:59;;;;;;;0.13;0.10;;;16.40;97.30;;;;;;5065327;28;20053;-76
2022/09/03 06:48:26;;;;;;;0.10;0.10;;;16.90;95.80;;;;;;5064575;28;20101;-75
2022/09/03 06:50:54;;;;;;;0.15;0.15;;;16.70;92.30;;;;;;5064617;28;20069;-75
2022/09/03 06:53:21;;;;;;;0.35;0.20;;;16.90;91.40;;;;;;5066088;28;20095;-74
2022/09/03 06:55:54;;;;;;;0.00;0.00;;;17.40;90.00;;;;;;5046461;28;20047;-75
2022/09/03 06:58:20;;;;;;;0.10;0.05;;;17.60;83.10;;;;;;5063965;28;20107;-76
2022/09/03 07:00:46;;;;;;;0.35;0.35;;;17.50;83.40;;;;;;5064696;28;20052;-75
2022/09/03 07:03:12;;;;;;;0.00;0.00;;;17.40;80.30;;;;;;5068612;28;20036;-75
2022/09/03 07:05:37;;;;;;;0.00;0.00;;;17.80;79.80;;;;;;5066178;28;20071;-74
2022/09/03 07:08:03;;;;;;;0.13;0.13;;;18.20;72.10;;;;;;5069377;28;20053;-75
2022/09/03 07:10:28;;;;;;;0.10;0.10;;;18.40;71.20;;;;;;5064902;28;20060;-74
2022/09/03 07:12:54;;;;;;;7.57;0.73;;;18.90;69.50;;;;;;5064843;28;20400;-75
2022/09/03 07:15:20;;;;;;;0.00;0.00;;;17.90;77.30;;;;;;5062374;28;20547;-75
2022/09/03 07:17:46;;;;;;;0.08;0.00;;;17.80;69.60;;;;;;5063847;28;20053;-75
2022/09/03 07:20:11;;;;;;;0.10;0.10;;;18.20;72.30;;;;;;5064296;28;20041;-74
2022/09/03 07:22:37;;;;;;;0.00;0.00;;;18.20;64.30;;;;;;5064743;28;20091;-75
2022/09/03 07:25:03;;;;;;;0.00;0.00;;;18.30;65.50;;;;;;5069163;28;20437;-75
2022/09/03 07:27:29;;;;;;;0.20;0.10;;;18.30;61.60;;;;;;5065919;28;20106;-74
2022/09/03 07:29:54;;;;;;;0.08;0.05;;;17.90;65.00;;;;;;5064710;28;20037;-74
2022/09/03 07:32:20;;;;;;;0.47;0.20;;;17.40;75.80;;;;;;5069717;28;20053;-74
2022/09/03 07:34:45;;;;;;;0.25;0.20;;;17.30;90.40;;;;;;5064204;28;20053;-74
2022/09/03 07:37:11;;;;;;;0.05;0.05;;;17.20;83.30;;;;;;5065557;28;20079;-74
2022/09/03 07:39:37;;;;;;;0.10;0.10;;;17.10;84.90;;;;;;5061432;28;20052;-74
2022/09/03 07:42:02;;;;;;;0.00;0.00;;;17.10;84.20;;;;;;5058517;28;20029;-74
2022/09/03 07:44:29;;;;;;;0.10;0.10;;;17.00;84.00;;;;;;5065133;28;20120;-74
2022/09/03 07:46:55;;;;;;;0.05;0.00;;;17.10;84.70;;;;;;5068920;28;20041;-76
2022/09/03 07:49:21;;;;;;;0.00;0.00;;;17.80;80.50;;;;;;5064726;28;20052;-74
2022/09/03 07:51:49;;;;;;;0.25;0.15;;;18.30;71.50;;;;;;5062748;28;20072;-74
2022/09/03 07:54:15;;;;;;;0.00;0.00;;;18.80;56.60;;;;;;5063801;28;20073;-74
2022/09/03 07:56:40;;;;;;;0.00;0.00;;;18.70;54.00;;;;;;5071464;28;20047;-75
2022/09/03 07:59:07;;;;;;;0.00;0.00;;;19.40;55.00;;;;;;5069238;28;20080;-74
2022/09/03 08:01:34;;;;;;;0.35;0.25;;;19.60;45.10;;;;;;5068679;28;20047;-75
2022/09/03 08:04:01;;;;;;;0.00;0.00;;;20.30;34.70;;;;;;5066653;28;20049;-72
2022/09/03 08:06:29;;;;;;;0.00;0.00;;;20.30;32.80;;;;;;5069872;28;20105;-74
2022/09/03 08:09:04;;;;;;;0.00;0.00;;;20.60;28.20;;;;;;5066139;28;20422;-74
2022/09/03 08:11:30;;;;;;;0.40;0.40;;;20.40;25.70;;;;;;5062485;28;20053;-74
2022/09/03 08:14:01;;;;;;;0.10;0.10;;;20.10;27.10;;;;;;5064821;28;20049;-74
2022/09/03 08:16:29;;;;;;;0.73;0.35;;;20.30;28.00;;;;;;5065693;28;20049;-75
2022/09/03 08:18:55;;;;;;;0.00;0.00;;;20.80;26.60;;;;;;5064537;28;20045;-77
2022/09/03 08:21:21;;;;;;;0.00;0.00;;;21.20;24.90;;;;;;5065746;28;20049;-75
2022/09/03 08:23:50;;;;;;;0.00;0.00;;;21.40;19.10;;;;;;5061869;28;20083;-74
2022/09/03 08:26:17;;;;;;;0.45;0.25;;;20.80;18.00;;;;;;5062362;28;20482;-75
2022/09/03 08:28:43;;;;;;;0.00;0.00;;;20.50;19.00;;;;;;5061482;28;20533;-74
2022/09/03 08:31:10;;;;;;;0.32;0.10;;;20.80;17.20;;;;;;5063568;28;20052;-75
2022/09/03 08:33:37;;;;;;;0.10;0.10;;;20.80;17.80;;;;;;5064244;28;20063;-74
2022/09/03 08:36:14;;;;;;;0.13;0.10;;;21.00;17.20;;;;;;5062433;28;20132;-75
2022/09/03 08:38:42;;;;;;;0.00;0.00;;;20.90;16.70;;;;;;5067309;28;20041;-74
2022/09/03 08:41:20;;;;;;;0.08;0.08;;;21.10;18.90;;;;;;5064895;28;20373;-75
2022/09/03 08:44:22;;;;;;;0.10;0.10;;;21.30;13.70;;;;;;5060710;28;20060;-74
2022/09/03 08:46:54;;;;;;;0.20;0.15;;;21.30;14.80;;;;;;5061804;28;20090;-75
2022/09/03 08:49:45;;;;;;;2.00;1.38;;;21.50;13.10;;;;;;5067618;28;20041;-75
2022/09/03 08:52:31;;;;;;;0.75;0.65;;;22.10;12.90;;;;;;5062711;28;20037;-73
2022/09/03 08:55:15;;;;;;;;;;;22.30;10.00;;;;;;5065371;28;20068;-73
2022/09/03 08:57:52;;;;;;;0.00;0.00;;;22.50;12.10;;;;;;5063822;28;19988;-72
2022/09/03 09:00:20;;;;;;;0.00;0.00;;;22.30;8.70;;;;;;5063299;28;20068;-75
2022/09/03 09:02:58;;;;;;;0.65;0.20;;;22.40;7.60;;;;;;5061640;28;20063;-75
2022/09/03 09:06:04;;;;;;;0.00;0.00;;;22.20;8.60;;;;;;5065436;28;20059;-76
2022/09/03 09:08:55;;;;;;;1.13;0.52;;;22.70;5.80;;;;;;5062561;28;20068;-75
2022/09/03 09:11:58;;;;;;;1.90;0.52;;;22.70;5.30;;;;;;5064113;28;20041;-75
2022/09/03 09:14:26;;;;;;;0.00;0.00;;;22.70;2.40;;;;;;5062286;28;20049;-75
2022/09/03 09:17:01;;;;;;;0.03;0.03;;;22.60;2.00;;;;;;5062540;28;20045;-74
2022/09/03 09:19:49;;;;;;;0.00;0.00;;;22.90;3.30;;;;;;5062101;28;20063;-75
2022/09/03 09:22:37;;;;;;;0.28;0.22;;;23.20;2.50;;;;;;5063246;28;20051;-73
2022/09/03 09:25:11;;;;;;;0.00;0.00;;;23.20;2.00;;;;;;5062155;28;20037;-73
2022/09/03 09:27:45;;;;;;;0.38;0.25;;;23.30;1.00;;;;;;5060642;28;20037;-72
2022/09/03 09:30:15;;;;;;;2.22;0.98;;;22.80;1.00;;;;;;5061221;28;20110;-73
2022/09/03 09:32:41;;;;;;;0.20;0.20;;;22.70;1.00;;;;;;5062585;28;20404;-74
2022/09/03 09:35:10;;;;;;;0.22;0.15;;;22.60;1.00;;;;;;5060257;28;20033;-73
2022/09/03 09:37:47;;;;;;;0.00;0.00;;;22.40;1.00;;;;;;5060863;28;20118;-73
2022/09/03 09:40:24;;;;;;;0.35;0.13;;;22.30;1.00;;;;;;5062555;28;20091;-73
2022/09/03 09:42:50;;;;;;;0.55;0.35;;;22.40;1.00;;;;;;5063579;28;20071;-73
2022/09/03 09:45:16;;;;;;;0.00;0.00;;;22.80;1.00;;;;;;5063954;28;20048;-73
2022/09/03 09:47:42;;;;;;;0.20;0.10;;;22.60;1.00;;;;;;5061455;28;20033;-73
2022/09/03 09:50:21;;;;;;;0.32;0.25;;;22.10;1.00;;;;;;5062178;28;20049;-73
2022/09/03 09:52:46;;;;;;;0.20;0.17;;;22.30;1.00;;;;;;5060038;28;20045;-73
2022/09/03 09:55:19;;;;;;;0.38;0.17;;;22.50;1.00;;;;;;5062867;28;20062;-73
2022/09/03 09:57:45;;;;;;;0.03;0.03;;;22.80;1.00;;;;;;5061748;28;20143;-73
2022/09/03 10:00:16;;;;;;;0.10;0.10;;;23.20;1.00;;;;;;5062709;28;20049;-73
2022/09/03 10:02:53;;;;;;;0.25;0.25;;;23.30;1.00;;;;;;5061903;28;20045;-73
2022/09/03 10:05:27;;;;;;;0.00;0.00;;;23.40;1.00;;;;;;5059729;28;20103;-73
2022/09/03 10:07:58;;;;;;;0.20;0.15;;;23.30;1.00;;;;;;5062415;28;20115;-72
2022/09/03 10:10:25;;;;;;;0.95;0.20;;;23.30;1.00;;;;;;5060214;28;20053;-72
2022/09/03 10:12:58;;;;;;;0.00;0.00;;;23.20;1.00;;;;;;5061225;28;20049;-73
2022/09/03 10:15:36;;;;;;;0.00;0.00;;;23.30;1.00;;;;;;5042664;28;20040;-73
2022/09/03 10:18:16;;;;;;;0.22;0.20;;;23.30;1.00;;;;;;5058636;28;20048;-73
2022/09/03 10:20:54;;;;;;;0.00;0.00;;;23.50;1.00;;;;;;5064575;28;20458;-72
2022/09/03 10:23:29;;;;;;;1.75;0.93;;;24.10;1.00;;;;;;5040952;28;20053;-73
2022/09/03 10:26:06;;;;;;;1.13;0.45;;;24.30;1.00;;;;;;5061495;28;20040;-73
2022/09/03 10:28:38;;;;;;;0.85;0.20;;;24.70;1.00;;;;;;5043932;28;20515;-73
2022/09/03 10:31:46;;;;;;;0.22;0.15;;;24.70;1.00;;;;;;5059666;28;20090;-72
2022/09/03 10:34:27;;;;;;;0.10;0.10;;;24.50;1.00;;;;;;5060783;28;20045;-73
2022/09/03 10:37:37;;;;;;;8.18;0.30;;;24.40;1.00;;;;;;5060733;28;20051;-73
2022/09/03 10:40:31;;;;;;;0.25;0.17;;;24.20;1.00;;;;;;4995819;28;20089;-72
2022/09/03 10:43:22;;;;;;;0.00;0.00;;;24.10;1.00;;;;;;4998103;28;20050;-72
2022/09/03 10:45:58;;;;;;;0.10;0.10;;;24.20;1.00;;;;;;5053501;28;20544;-73
2022/09/03 10:49:09;;;;;;;0.05;0.05;;;24.60;1.00;;;;;;5063581;28;20492;-75
2022/09/03 10:51:54;;;;;;;0.00;0.00;;;24.70;1.00;;;;;;5057920;28;20045;-73
2022/09/03 10:54:39;;;;;;;0.45;0.45;;;24.50;1.00;;;;;;5056538;28;20484;-72
2022/09/03 10:57:22;;;;;;;0.10;0.05;;;24.50;1.00;;;;;;5058784;28;20412;-73
2022/09/03 11:00:11;;;;;;;0.05;0.05;;;25.20;1.00;;;;;;5057062;28;20132;-73
2022/09/03 11:02:56;;;;;;;0.17;0.10;;;25.40;1.00;;;;;;5057436;28;20036;-73
2022/09/03 11:05:37;;;;;;;0.00;0.00;;;25.50;1.00;;;;;;5045194;28;20106;-74
2022/09/03 11:08:08;;;;;;;0.55;0.28;;;25.60;1.00;;;;;;5056846;28;20059;-74
2022/09/03 11:10:40;;;;;;;0.10;0.03;;;24.80;1.00;;;;;;5058334;28;20543;-73
2022/09/03 11:13:10;;;;;;;0.40;0.10;;;25.00;1.00;;;;;;5056952;28;20044;-73
2022/09/03 11:16:14;;;;;;;0.13;0.10;;;24.90;1.00;;;;;;5059421;28;20049;-73
2022/09/03 11:18:42;;;;;;;0.00;0.00;;;24.80;1.00;;;;;;5027506;28;20136;-73
2022/09/03 11:21:11;;;;;;;0.05;0.05;;;24.90;1.00;;;;;;5057125;28;20041;-73
2022/09/03 11:23:42;;;;;;;0.00;0.00;;;24.90;1.00;;;;;;5059458;28;20037;-73
2022/09/03 11:26:12;;;;;;;0.00;0.00;;;25.20;1.00;;;;;;5065312;28;20049;-73
2022/09/03 11:28:44;;;;;;;0.00;0.00;;;25.80;1.00;;;;;;5065264;28;20056;-73
2022/09/03 11:31:28;;;;;;;0.10;0.10;;;25.90;1.00;;;;;;5065713;28;20135;-73
2022/09/03 11:34:05;;;;;;;0.00;0.00;;;26.30;1.00;;;;;;5063271;28;20076;-73
2022/09/03 11:36:34;;;;;;;0.28;0.25;;;26.60;1.00;;;;;;5061155;28;20492;-74
2022/09/03 11:38:59;;;;;;;0.65;0.35;;;26.30;1.00;;;;;;5064168;28;20128;-73
2022/09/03 11:41:29;;;;;;;0.13;0.05;;;26.40;1.00;;;;;;5063463;28;20033;-73
2022/09/03 11:43:54;;;;;;;0.20;0.10;;;26.60;1.00;;;;;;5061260;28;20053;-73
2022/09/03 11:46:20;;;;;;;3.13;0.55;;;26.60;1.00;;;;;;5061584;28;20462;-73
2022/09/03 11:48:51;;;;;;;0.43;0.22;;;26.90;1.00;;;;;;5057104;28;20045;-74
2022/09/03 11:51:40;;;;;;;0.32;0.28;;;26.60;1.00;;;;;;5059462;28;20049;-73
2022/09/03 11:54:11;;;;;;;0.70;0.65;;;26.60;1.00;;;;;;5057908;28;20112;-74
2022/09/03 11:56:37;;;;;;;0.10;0.10;;;26.40;1.00;;;;;;5058839;28;20045;-74
2022/09/03 11:59:15;;;;;;;0.15;0.10;;;26.70;1.00;;;;;;5057981;28;20553;-73
2022/09/03 12:01:51;;;;;;;0.00;0.00;;;26.90;1.00;;;;;;5057680;28;20049;-73
2022/09/03 12:04:20;;;;;;;1.67;0.75;;;26.40;1.00;;;;;;5040569;28;20052;-73
2022/09/03 12:07:08;;;;;;;0.32;0.20;;;27.10;1.00;;;;;;5060478;28;20045;-73
2022/09/03 12:10:00;;;;;;;0.17;0.13;;;27.40;1.00;;;;;;5060699;28;20053;-74
2022/09/03 12:12:58;;;;;;;0.00;0.00;;;27.50;1.00;;;;;;5059187;28;20396;-74
2022/09/03 12:16:03;;;;;;;0.00;0.00;;;27.20;1.00;;;;;;5058423;28;20051;-73
2022/09/03 12:18:30;;;;;;;0.00;0.00;;;27.30;1.00;;;;;;5057811;28;20037;-73
2022/09/03 12:20:58;;;;;;;0.08;0.08;;;27.20;1.00;;;;;;5058910;28;20373;-73
2022/09/03 12:23:32;;;;;;;0.00;0.00;;;27.90;1.00;;;;;;5058183;28;20044;-73
2022/09/03 12:26:02;;;;;;;0.55;0.40;;;27.50;1.00;;;;;;5058718;28;20044;-74
2022/09/03 12:28:29;;;;;;;2.60;0.65;;;27.90;1.00;;;;;;5058699;28;20064;-73
2022/09/03 12:31:07;;;;;;;17.30;0.50;;;28.30;1.00;;;;;;5057333;28;20041;-73
2022/09/03 12:33:33;;;;;;;0.00;0.00;;;27.80;1.00;;;;;;5058209;28;20056;-73
2022/09/03 12:36:00;;;;;;;0.00;0.00;;;27.20;1.00;;;;;;5061906;28;20045;-73
2022/09/03 12:38:28;;;;;;;0.00;0.00;;;27.50;1.00;;;;;;5057398;28;20048;-73
2022/09/03 12:40:54;;;;;;;0.10;0.10;;;27.40;1.00;;;;;;5059644;28;20048;-74
2022/09/03 12:43:26;;;;;;;1.10;0.82;;;27.70;1.00;;;;;;5061166;28;20059;-73
2022/09/03 12:45:53;;;;;;;0.08;0.08;;;28.20;1.00;;;;;;5054582;28;20084;-73
2022/09/03 12:48:20;;;;;;;1.50;0.28;;;27.80;1.00;;;;;;5054787;28;20424;-73
2022/09/03 12:50:47;;;;;;;0.28;0.20;;;28.50;1.00;;;;;;5054545;28;20083;-74
2022/09/03 12:53:23;;;;;;;0.00;0.00;;;28.80;1.00;;;;;;5054642;28;20116;-73
2022/09/03 12:55:58;;;;;;;0.10;0.10;;;29.40;1.00;;;;;;5056192;28;20045;-74
2022/09/03 12:58:48;;;;;;;0.00;0.00;;;29.60;1.00;;;;;;5055259;28;20044;-74
2022/09/03 13:01:20;;;;;;;0.08;0.08;;;28.50;1.00;;;;;;5050577;28;20504;-74
2022/09/03 13:04:07;;;;;;;0.90;0.38;;;29.40;1.00;;;;;;5056180;28;20119;-73
2022/09/03 13:06:55;;;;;;;0.00;0.00;;;29.20;1.00;;;;;;5055198;28;20120;-73
2022/09/03 13:09:28;;;;;;;0.10;0.10;;;28.20;1.00;;;;;;5054384;28;20527;-73
2022/09/03 13:11:54;;;;;;;0.20;0.20;;;28.10;1.00;;;;;;5054336;28;20087;-74
2022/09/03 13:14:21;;;;;;;0.47;0.30;;;28.10;1.00;;;;;;5055340;28;20037;-73
2022/09/03 13:17:09;;;;;;;1.17;0.45;;;28.00;1.00;;;;;;5056452;28;20431;-73
2022/09/03 13:19:59;;;;;;;0.65;0.25;;;28.10;1.00;;;;;;5055840;28;20484;-73
2022/09/03 13:22:31;;;;;;;0.17;0.17;;;28.00;1.00;;;;;;5055697;28;20045;-74